WZZ405 EKBI-EPKK
Flight info
| Callsign | WZZ405 |
|---|---|
| Flight time | N/A |
| Altitude | 39000 |
| Route | RIDSI DCT NIKDA DCT BINKA DCT ROVEK DCT ADVAB L623 UWLER |
| Aircraft | A20N/M-SDE2E3FGHIRWXY/LB1 |
Departure
| Time | 2026-04-30 18:09 |
|---|---|
| Airport | Billund Airport (EKBI) |
Arrival
| Time | N/A |
|---|---|
| Airport | Kraków John Paul II International Airport (EPKK) |
| Time | Latitude | Longitude | Altitude | Speed | Heading |
|---|---|---|---|---|---|
| 2026-04-30 17:44 | 55.74531 | 9.14746 | 227 ft | 0 kts | 357° |
| 2026-04-30 17:47 | 55.74527 | 9.14614 | 226 ft | 0 kts | 358° |
| 2026-04-30 17:59 | 55.74489 | 9.14614 | 226 ft | 3 kts | 5° |
| 2026-04-30 18:00 | 55.74446 | 9.14579 | 225 ft | 1 kts | 86° |
| 2026-04-30 18:03 | 55.74447 | 9.14600 | 227 ft | 5 kts | 86° |
| 2026-04-30 18:04 | 55.74433 | 9.14964 | 228 ft | 11 kts | 148° |
| 2026-04-30 18:05 | 55.74204 | 9.15220 | 230 ft | 14 kts | 88° |
| 2026-04-30 18:06 | 55.74231 | 9.16055 | 235 ft | 11 kts | 86° |
| 2026-04-30 18:07 | 55.74254 | 9.16847 | 240 ft | 8 kts | 97° |
| 2026-04-30 18:08 | 55.74086 | 9.16785 | 242 ft | 14 kts | 273° |
| 2026-04-30 18:09 | 55.73886 | 9.12361 | 1553 ft | 133 kts | 266° |
| 2026-04-30 18:10 | 55.76405 | 9.07618 | 4106 ft | 211 kts | 20° |
| 2026-04-30 18:11 | 55.81106 | 9.16509 | 7561 ft | 270 kts | 51° |
| 2026-04-30 18:11 | 55.84968 | 9.24054 | 9837 ft | 281 kts | 51° |
| 2026-04-30 18:12 | 55.85616 | 9.34369 | 12071 ft | 327 kts | 116° |
| 2026-04-30 18:13 | 55.83569 | 9.40246 | 13886 ft | 341 kts | 123° |
| 2026-04-30 18:13 | 55.79400 | 9.50903 | 16332 ft | 360 kts | 123° |
| 2026-04-30 18:14 | 55.76504 | 9.58351 | 17879 ft | 371 kts | 123° |
| 2026-04-30 18:15 | 55.71496 | 9.71240 | 20370 ft | 390 kts | 122° |
| 2026-04-30 18:15 | 55.67314 | 9.81940 | 22407 ft | 403 kts | 122° |
| 2026-04-30 18:16 | 55.64061 | 9.90230 | 24031 ft | 414 kts | 122° |
| 2026-04-30 18:16 | 55.60746 | 9.98651 | 25442 ft | 423 kts | 122° |
| 2026-04-30 18:17 | 55.59052 | 10.02943 | 26190 ft | 426 kts | 122° |
| 2026-04-30 18:17 | 55.57342 | 10.07269 | 26951 ft | 428 kts | 122° |
| 2026-04-30 18:17 | 55.53927 | 10.15880 | 28533 ft | 430 kts | 122° |
| 2026-04-30 18:18 | 55.52207 | 10.20206 | 29355 ft | 430 kts | 122° |
| 2026-04-30 18:18 | 55.50480 | 10.24541 | 30198 ft | 429 kts | 122° |
| 2026-04-30 18:18 | 55.48790 | 10.28777 | 30970 ft | 427 kts | 123° |
| 2026-04-30 18:18 | 55.47079 | 10.33059 | 31716 ft | 425 kts | 123° |
| 2026-04-30 18:19 | 55.45380 | 10.37304 | 32484 ft | 423 kts | 123° |
| 2026-04-30 18:19 | 55.43683 | 10.41538 | 33070 ft | 426 kts | 123° |
| 2026-04-30 18:19 | 55.41946 | 10.45869 | 33218 ft | 439 kts | 123° |
| 2026-04-30 18:19 | 55.40154 | 10.50327 | 33354 ft | 451 kts | 123° |
| 2026-04-30 18:20 | 55.38313 | 10.54896 | 33490 ft | 462 kts | 123° |
| 2026-04-30 18:20 | 55.36437 | 10.59537 | 33900 ft | 466 kts | 123° |
| 2026-04-30 18:20 | 55.34584 | 10.64110 | 34524 ft | 464 kts | 123° |
| 2026-04-30 18:20 | 55.32727 | 10.68685 | 35090 ft | 462 kts | 124° |
| 2026-04-30 18:21 | 55.30864 | 10.73269 | 35351 ft | 459 kts | 123° |
| 2026-04-30 18:21 | 55.27159 | 10.82364 | 35433 ft | 457 kts | 124° |
| 2026-04-30 18:22 | 55.23443 | 10.91450 | 35433 ft | 457 kts | 124° |
| 2026-04-30 18:22 | 55.17886 | 11.04978 | 35443 ft | 457 kts | 124° |
| 2026-04-30 18:23 | 55.14179 | 11.13959 | 35436 ft | 457 kts | 124° |
| 2026-04-30 18:23 | 55.10444 | 11.22975 | 35436 ft | 457 kts | 124° |
| 2026-04-30 18:24 | 55.04848 | 11.36425 | 35433 ft | 457 kts | 124° |
| 2026-04-30 18:25 | 55.01094 | 11.45405 | 35433 ft | 457 kts | 124° |
| 2026-04-30 18:25 | 54.95490 | 11.58749 | 35440 ft | 457 kts | 124° |
| 2026-04-30 18:26 | 54.89835 | 11.72145 | 35438 ft | 457 kts | 124° |
| 2026-04-30 18:27 | 54.84192 | 11.85439 | 35430 ft | 456 kts | 124° |
| 2026-04-30 18:28 | 54.78541 | 11.98681 | 35431 ft | 456 kts | 124° |
| 2026-04-30 18:28 | 54.72863 | 12.11915 | 35427 ft | 456 kts | 124° |
| 2026-04-30 18:29 | 54.65281 | 12.29478 | 35426 ft | 456 kts | 124° |
| 2026-04-30 18:30 | 54.57695 | 12.46927 | 35437 ft | 455 kts | 124° |
| 2026-04-30 18:31 | 54.51979 | 12.59993 | 35422 ft | 455 kts | 124° |
| 2026-04-30 18:32 | 54.46260 | 12.72999 | 35423 ft | 455 kts | 124° |
| 2026-04-30 18:33 | 54.40510 | 12.86008 | 35423 ft | 455 kts | 124° |
| 2026-04-30 18:33 | 54.34765 | 12.98926 | 35429 ft | 455 kts | 124° |
| 2026-04-30 18:34 | 54.28981 | 13.11876 | 35425 ft | 455 kts | 124° |
| 2026-04-30 18:35 | 54.25141 | 13.20435 | 35431 ft | 455 kts | 124° |
| 2026-04-30 18:35 | 54.21278 | 13.29016 | 35431 ft | 455 kts | 124° |